Time;durP1;ratioP1;P1;durP2;ratioP2;P2;SDS_P1;SDS_P2;PMS_P1;PMS_P2;Temp;Humidity;BMP_temperature;BMP_pressure;BME280_temperature;BME280_humidity;BME280_pressure;Samples;Min_cycle;Max_cycle;Signal;HPM_P1;HPM_P2
2022/03/30 00:01:20;;;;;;;0.50;0.50;;;;;;;;;;4903326;29;20499;-92
2022/03/30 00:03:47;;;;;;;0.30;0.28;;;;;;;;;;4919090;29;20088;-92
2022/03/30 00:06:13;;;;;;;0.10;0.10;;;;;;;;;;4903234;29;20479;-92
2022/03/30 00:08:39;;;;;;;0.10;0.10;;;;;;;;;;4919416;29;20421;-92
2022/03/30 00:11:05;;;;;;;0.10;0.10;;;;;;;;;;4906806;29;20047;-92
2022/03/30 00:13:31;;;;;;;0.10;0.10;;;;;;;;;;4907235;29;20043;-93
2022/03/30 00:15:56;;;;;;;0.10;0.10;;;;;;;;;;4907203;29;20471;-92
2022/03/30 00:18:22;;;;;;;0.20;0.20;;;;;;;;;;4907462;29;20048;-93
2022/03/30 00:20:48;;;;;;;0.10;0.10;;;;;;;;;;4922842;29;20633;-92
2022/03/30 00:23:14;;;;;;;0.10;0.10;;;;;;;;;;4907334;29;20130;-92
2022/03/30 00:25:40;;;;;;;0.20;0.20;;;;;;;;;;4923250;29;20058;-92
2022/03/30 00:28:08;;;;;;;0.10;0.10;;;;;;;;;;4907128;29;20044;-92
2022/03/30 00:30:34;;;;;;;0.10;0.10;;;;;;;;;;4907243;29;20046;-92
2022/03/30 00:33:00;;;;;;;0.10;0.10;;;;;;;;;;4906793;29;20475;-93
2022/03/30 00:35:26;;;;;;;0.10;0.10;;;;;;;;;;4907301;29;20040;-92
2022/03/30 00:37:52;;;;;;;0.10;0.10;;;;;;;;;;4922528;29;20055;-92
2022/03/30 00:40:18;;;;;;;0.10;0.10;;;;;;;;;;4922812;29;20447;-91
2022/03/30 00:42:44;;;;;;;0.10;0.10;;;;;;;;;;4905892;29;20078;-92
2022/03/30 00:45:13;;;;;;;0.10;0.10;;;;;;;;;;4906355;29;20510;-92
2022/03/30 00:47:39;;;;;;;0.10;0.10;;;;;;;;;;4922472;29;20059;-91
2022/03/30 00:50:05;;;;;;;0.10;0.10;;;;;;;;;;4906890;29;20044;-92
2022/03/30 00:52:31;;;;;;;0.10;0.10;;;;;;;;;;4906183;29;20048;-91
2022/03/30 00:54:57;;;;;;;0.10;0.10;;;;;;;;;;4906472;29;20047;-91
2022/03/30 00:57:23;;;;;;;0.10;0.10;;;;;;;;;;4906548;29;20055;-92
2022/03/30 00:59:49;;;;;;;0.10;0.10;;;;;;;;;;4906516;29;20132;-92
2022/03/30 01:02:15;;;;;;;0.20;0.20;;;;;;;;;;4906358;29;20134;-92
2022/03/30 01:04:41;;;;;;;0.10;0.10;;;;;;;;;;4906498;29;20054;-92
2022/03/30 01:07:07;;;;;;;0.10;0.10;;;;;;;;;;4906296;29;20051;-92
2022/03/30 01:09:33;;;;;;;0.10;0.10;;;;;;;;;;4906493;29;20159;-93
2022/03/30 01:12:00;;;;;;;0.10;0.10;;;;;;;;;;4906541;29;20139;-93
2022/03/30 01:14:27;;;;;;;0.10;0.10;;;;;;;;;;4906450;29;20043;-92
2022/03/30 01:16:53;;;;;;;0.10;0.10;;;;;;;;;;4906132;29;20043;-92
2022/03/30 01:19:20;;;;;;;0.20;0.20;;;;;;;;;;4906158;29;20091;-92
2022/03/30 01:21:46;;;;;;;0.10;0.10;;;;;;;;;;4905449;29;20527;-92
2022/03/30 01:24:13;;;;;;;0.10;0.10;;;;;;;;;;4905310;29;20163;-92
2022/03/30 01:26:41;;;;;;;0.03;0.03;;;;;;;;;;4906020;29;20058;-92
2022/03/30 01:34:36;;;;;;;0.10;0.10;;;;;;;;;;4922831;29;20091;-93
2022/03/30 01:37:05;;;;;;;0.32;0.32;;;;;;;;;;4906120;29;20333;-93
2022/03/30 01:39:31;;;;;;;0.13;0.13;;;;;;;;;;4905940;29;20046;-92
2022/03/30 01:41:57;;;;;;;0.20;0.20;;;;;;;;;;4905727;29;20050;-92
2022/03/30 01:44:24;;;;;;;0.10;0.10;;;;;;;;;;4905615;29;20048;-92
2022/03/30 01:46:50;;;;;;;0.10;0.10;;;;;;;;;;4905743;29;20484;-92
2022/03/30 01:49:21;;;;;;;0.10;0.10;;;;;;;;;;4905464;29;20043;-93
2022/03/30 01:51:48;;;;;;;0.10;0.10;;;;;;;;;;4906229;29;20094;-92
2022/03/30 01:54:14;;;;;;;0.10;0.10;;;;;;;;;;4905529;29;20051;-92
2022/03/30 01:56:40;;;;;;;0.10;0.10;;;;;;;;;;4905381;29;20460;-92
2022/03/30 01:59:06;;;;;;;0.10;0.10;;;;;;;;;;4921169;29;20047;-93
2022/03/30 02:01:32;;;;;;;0.10;0.10;;;;;;;;;;4921489;29;20503;-92
2022/03/30 02:04:00;;;;;;;0.10;0.10;;;;;;;;;;4905499;29;20043;-92
2022/03/30 02:06:27;;;;;;;0.10;0.10;;;;;;;;;;4905674;29;20048;-93
2022/03/30 02:08:53;;;;;;;0.10;0.10;;;;;;;;;;4920851;29;20515;-92
2022/03/30 02:11:19;;;;;;;0.10;0.10;;;;;;;;;;4920773;29;20044;-93
2022/03/30 02:13:45;;;;;;;0.10;0.10;;;;;;;;;;4920523;29;20075;-92
2022/03/30 02:16:11;;;;;;;0.10;0.10;;;;;;;;;;4904533;29;20047;-94
2022/03/30 02:18:38;;;;;;;0.10;0.10;;;;;;;;;;4905025;29;20138;-92
2022/03/30 02:21:04;;;;;;;0.10;0.10;;;;;;;;;;4904764;29;20052;-92
2022/03/30 02:23:31;;;;;;;0.10;0.10;;;;;;;;;;4920771;29;20124;-92
2022/03/30 02:25:57;;;;;;;0.10;0.10;;;;;;;;;;4904867;29;20048;-92
2022/03/30 02:28:23;;;;;;;0.10;0.10;;;;;;;;;;4905119;29;20138;-92
2022/03/30 02:30:48;;;;;;;0.10;0.10;;;;;;;;;;4904720;29;20509;-90
2022/03/30 02:33:14;;;;;;;0.10;0.10;;;;;;;;;;4904241;29;20043;-91
2022/03/30 02:35:40;;;;;;;0.10;0.10;;;;;;;;;;4904531;29;20136;-91
2022/03/30 02:38:06;;;;;;;0.10;0.10;;;;;;;;;;4904740;29;20036;-92
2022/03/30 02:40:32;;;;;;;0.10;0.10;;;;;;;;;;4904710;29;20084;-92
2022/03/30 02:42:58;;;;;;;0.10;0.10;;;;;;;;;;4903898;29;20058;-90
2022/03/30 02:45:25;;;;;;;0.10;0.10;;;;;;;;;;4904175;29;20048;-90
2022/03/30 02:50:35;;;;;;;0.10;0.10;;;;;;;;;;4922132;29;20058;-91
2022/03/30 02:53:01;;;;;;;0.10;0.10;;;;;;;;;;4919855;29;20051;-90
2022/03/30 02:55:27;;;;;;;0.38;0.38;;;;;;;;;;4904179;29;20071;-91
2022/03/30 02:57:53;;;;;;;0.10;0.10;;;;;;;;;;4904021;29;20040;-91
2022/03/30 03:00:19;;;;;;;0.10;0.10;;;;;;;;;;4903353;29;20103;-92
2022/03/30 03:02:46;;;;;;;0.10;0.10;;;;;;;;;;4904069;29;20047;-92
2022/03/30 03:05:12;;;;;;;0.10;0.10;;;;;;;;;;4919478;29;20075;-91
2022/03/30 03:07:38;;;;;;;0.10;0.10;;;;;;;;;;4903995;29;20047;-92
2022/03/30 03:10:05;;;;;;;0.10;0.10;;;;;;;;;;4904051;29;20129;-91
2022/03/30 03:12:31;;;;;;;0.22;0.22;;;;;;;;;;4904262;29;20098;-91
2022/03/30 03:14:57;;;;;;;0.10;0.10;;;;;;;;;;4904110;29;20043;-92
2022/03/30 03:17:23;;;;;;;0.10;0.10;;;;;;;;;;4904318;29;20126;-92
2022/03/30 03:19:49;;;;;;;0.10;0.10;;;;;;;;;;4904084;29;20044;-93
2022/03/30 03:22:14;;;;;;;0.10;0.10;;;;;;;;;;4904074;29;20094;-92
2022/03/30 03:24:40;;;;;;;0.10;0.10;;;;;;;;;;4904107;29;20044;-93
2022/03/30 03:27:06;;;;;;;0.10;0.10;;;;;;;;;;4919982;29;20365;-92
2022/03/30 03:29:33;;;;;;;0.10;0.10;;;;;;;;;;4904364;29;20048;-92
2022/03/30 03:31:59;;;;;;;0.10;0.10;;;;;;;;;;4904230;29;20044;-91
2022/03/30 03:34:25;;;;;;;0.10;0.10;;;;;;;;;;4903558;29;20044;-91
2022/03/30 03:36:51;;;;;;;0.10;0.10;;;;;;;;;;4903704;29;20047;-90
2022/03/30 03:39:17;;;;;;;0.10;0.10;;;;;;;;;;4903307;29;20036;-94
2022/03/30 03:41:43;;;;;;;0.38;0.25;;;;;;;;;;4903982;29;20094;-93
2022/03/30 03:44:10;;;;;;;0.60;0.20;;;;;;;;;;4904489;29;20052;-94
2022/03/30 03:46:36;;;;;;;0.10;0.10;;;;;;;;;;4923481;29;20570;-93
2022/03/30 03:49:02;;;;;;;0.17;0.17;;;;;;;;;;4907790;29;20051;-93
2022/03/30 03:51:28;;;;;;;0.10;0.10;;;;;;;;;;4907742;29;20166;-92
2022/03/30 03:53:54;;;;;;;0.10;0.10;;;;;;;;;;4907829;29;20051;-92
2022/03/30 03:56:21;;;;;;;0.10;0.10;;;;;;;;;;4907898;29;20456;-92
2022/03/30 03:58:49;;;;;;;0.10;0.10;;;;;;;;;;4907633;29;20047;-92
2022/03/30 04:01:15;;;;;;;0.10;0.10;;;;;;;;;;4907907;29;20466;-93
2022/03/30 04:03:42;;;;;;;0.10;0.10;;;;;;;;;;4907809;29;20043;-93
2022/03/30 04:06:10;;;;;;;0.10;0.10;;;;;;;;;;4908119;29;20403;-92
2022/03/30 04:08:37;;;;;;;0.10;0.10;;;;;;;;;;4907582;29;20409;-93
2022/03/30 04:11:03;;;;;;;0.10;0.10;;;;;;;;;;4907728;29;20064;-91
2022/03/30 04:13:29;;;;;;;0.10;0.10;;;;;;;;;;4907249;29;20044;-92
2022/03/30 04:15:55;;;;;;;0.10;0.10;;;;;;;;;;4907244;29;20047;-92
2022/03/30 04:18:23;;;;;;;0.10;0.10;;;;;;;;;;4907415;29;20043;-92
2022/03/30 04:20:49;;;;;;;0.10;0.10;;;;;;;;;;4906251;29;20058;-91
2022/03/30 04:23:15;;;;;;;0.10;0.10;;;;;;;;;;4907508;29;20039;-93
2022/03/30 04:25:41;;;;;;;0.20;0.20;;;;;;;;;;4907054;29;20046;-93
2022/03/30 04:28:07;;;;;;;0.13;0.13;;;;;;;;;;4907302;29;20051;-93
2022/03/30 04:30:33;;;;;;;0.10;0.10;;;;;;;;;;4907471;29;20044;-93
2022/03/30 04:32:59;;;;;;;0.10;0.10;;;;;;;;;;4907159;29;20046;-92
2022/03/30 04:35:25;;;;;;;0.10;0.10;;;;;;;;;;4922433;29;20102;-93
2022/03/30 04:37:55;;;;;;;0.10;0.10;;;;;;;;;;4938404;29;20167;-91
2022/03/30 04:40:22;;;;;;;0.10;0.10;;;;;;;;;;4907145;29;20394;-92
2022/03/30 04:42:48;;;;;;;0.10;0.10;;;;;;;;;;4922572;29;20039;-92
2022/03/30 04:45:14;;;;;;;0.10;0.10;;;;;;;;;;4906345;29;20376;-92
2022/03/30 04:47:41;;;;;;;0.17;0.17;;;;;;;;;;4906731;29;20050;-92
2022/03/30 04:50:09;;;;;;;0.10;0.10;;;;;;;;;;4923117;29;20134;-92
2022/03/30 04:52:35;;;;;;;0.10;0.10;;;;;;;;;;4906800;29;20055;-92
2022/03/30 04:55:01;;;;;;;0.10;0.10;;;;;;;;;;4906849;29;20058;-93
2022/03/30 04:57:27;;;;;;;0.10;0.10;;;;;;;;;;4921591;29;20058;-93
2022/03/30 04:59:53;;;;;;;0.10;0.10;;;;;;;;;;4906495;29;20551;-92
2022/03/30 05:02:19;;;;;;;0.10;0.10;;;;;;;;;;4905668;29;20103;-91
2022/03/30 05:04:45;;;;;;;0.10;0.10;;;;;;;;;;4905937;29;20052;-92
2022/03/30 05:07:13;;;;;;;0.10;0.10;;;;;;;;;;4921974;29;20048;-92
2022/03/30 05:09:39;;;;;;;0.10;0.10;;;;;;;;;;4906398;29;20052;-92
2022/03/30 05:12:05;;;;;;;0.10;0.10;;;;;;;;;;4921937;29;20124;-92
2022/03/30 05:14:32;;;;;;;0.10;0.10;;;;;;;;;;4906375;29;20047;-93
2022/03/30 05:16:58;;;;;;;0.10;0.10;;;;;;;;;;4906710;29;20484;-92
2022/03/30 05:19:24;;;;;;;0.20;0.20;;;;;;;;;;4906518;29;20105;-92
2022/03/30 05:21:50;;;;;;;0.10;0.10;;;;;;;;;;4906164;29;20542;-92
2022/03/30 05:24:17;;;;;;;0.10;0.10;;;;;;;;;;4905854;29;20067;-92
2022/03/30 05:26:45;;;;;;;0.10;0.10;;;;;;;;;;4922958;29;20047;-96
2022/03/30 05:29:11;;;;;;;0.10;0.10;;;;;;;;;;4906287;29;20052;-92
2022/03/30 05:31:37;;;;;;;0.20;0.20;;;;;;;;;;4906104;29;20047;-92
2022/03/30 05:34:03;;;;;;;0.10;0.10;;;;;;;;;;4906135;29;20050;-95
2022/03/30 05:36:30;;;;;;;0.10;0.10;;;;;;;;;;4906135;29;20103;-94
2022/03/30 05:38:56;;;;;;;0.10;0.10;;;;;;;;;;4906071;29;20039;-93
2022/03/30 05:41:22;;;;;;;0.10;0.10;;;;;;;;;;4905326;29;20043;-93
2022/03/30 05:43:48;;;;;;;0.10;0.10;;;;;;;;;;4920774;29;20214;-94
2022/03/30 05:46:16;;;;;;;0.10;0.10;;;;;;;;;;4905473;29;20058;-93
2022/03/30 05:48:42;;;;;;;0.10;0.10;;;;;;;;;;4905906;29;20044;-93
2022/03/30 05:51:08;;;;;;;0.10;0.10;;;;;;;;;;4906137;29;20126;-93
2022/03/30 05:53:34;;;;;;;0.20;0.20;;;;;;;;;;4905902;29;20039;-91
2022/03/30 05:56:01;;;;;;;0.10;0.10;;;;;;;;;;4905178;29;20196;-93
2022/03/30 05:58:27;;;;;;;0.10;0.10;;;;;;;;;;4905967;29;20040;-94
2022/03/30 06:00:53;;;;;;;0.10;0.10;;;;;;;;;;4923710;29;20048;-96
2022/03/30 06:03:20;;;;;;;0.10;0.10;;;;;;;;;;4912913;29;20074;-95
2022/03/30 06:05:46;;;;;;;0.10;0.10;;;;;;;;;;4913305;29;20089;-95
2022/03/30 06:08:12;;;;;;;0.10;0.10;;;;;;;;;;4911522;29;20051;-95
2022/03/30 06:10:38;;;;;;;0.10;0.10;;;;;;;;;;4911408;29;20050;-93
2022/03/30 06:13:04;;;;;;;0.10;0.10;;;;;;;;;;4905453;29;20050;-93
2022/03/30 06:15:30;;;;;;;0.10;0.10;;;;;;;;;;4904668;29;20099;-93
2022/03/30 06:17:56;;;;;;;0.10;0.10;;;;;;;;;;4905836;29;20043;-94
2022/03/30 06:20:24;;;;;;;0.10;0.10;;;;;;;;;;4920804;29;20135;-93
2022/03/30 06:22:51;;;;;;;0.10;0.10;;;;;;;;;;4904280;29;20044;-93
2022/03/30 06:25:17;;;;;;;0.10;0.10;;;;;;;;;;4904552;29;20094;-94
2022/03/30 06:27:43;;;;;;;0.10;0.10;;;;;;;;;;4904837;29;20488;-95
2022/03/30 06:30:10;;;;;;;0.10;0.10;;;;;;;;;;4904656;29;20050;-93
2022/03/30 06:32:37;;;;;;;0.10;0.10;;;;;;;;;;4905756;29;20134;-91
2022/03/30 06:35:03;;;;;;;0.10;0.10;;;;;;;;;;4920763;29;20043;-92
2022/03/30 06:37:29;;;;;;;0.10;0.10;;;;;;;;;;4920738;29;20094;-94
2022/03/30 06:39:55;;;;;;;0.10;0.10;;;;;;;;;;4905256;29;20040;-93
2022/03/30 06:45:07;;;;;;;0.10;0.10;;;;;;;;;;5199286;23;20043;-96
2022/03/30 06:47:35;;;;;;;0.10;0.10;;;;;;;;;;4925273;29;20538;-95
2022/03/30 06:50:02;;;;;;;0.10;0.10;;;;;;;;;;4923512;29;20039;-94
2022/03/30 06:52:28;;;;;;;0.10;0.10;;;;;;;;;;4924420;29;20130;-95
2022/03/30 06:54:54;;;;;;;0.10;0.10;;;;;;;;;;4923210;28;20590;-92
2022/03/30 06:57:20;;;;;;;0.10;0.10;;;;;;;;;;4923760;29;20455;-93
2022/03/30 06:59:47;;;;;;;0.10;0.10;;;;;;;;;;4923267;29;20039;-93
2022/03/30 07:02:13;;;;;;;0.10;0.10;;;;;;;;;;4923443;29;20028;-94
2022/03/30 07:04:39;;;;;;;0.10;0.10;;;;;;;;;;4924403;29;20559;-95
2022/03/30 07:12:36;;;;;;;0.10;0.10;;;;;;;;;;4954648;28;20042;-95
2022/03/30 07:15:23;;;;;;;0.10;0.10;;;;;;;;;;4947622;28;20058;-96
2022/03/30 07:18:16;;;;;;;0.10;0.10;;;;;;;;;;4935785;28;20086;-95
2022/03/30 07:20:42;;;;;;;0.10;0.10;;;;;;;;;;4943581;28;20117;-93
2022/03/30 07:26:06;;;;;;;0.10;0.10;;;;;;;;;;4948426;29;20047;-93
2022/03/30 07:28:32;;;;;;;0.10;0.10;;;;;;;;;;4925858;29;20054;-93
2022/03/30 07:31:03;;;;;;;0.28;0.28;;;;;;;;;;4924250;29;20054;-94
2022/03/30 07:33:33;;;;;;;0.10;0.10;;;;;;;;;;4926365;29;20083;-92
2022/03/30 07:36:00;;;;;;;0.10;0.10;;;;;;;;;;4923142;29;20036;-94
2022/03/30 07:38:26;;;;;;;0.10;0.10;;;;;;;;;;4923014;29;20035;-95
2022/03/30 07:40:53;;;;;;;0.10;0.10;;;;;;;;;;4922765;29;20051;-92
2022/03/30 07:43:19;;;;;;;0.10;0.10;;;;;;;;;;4922612;29;20526;-96
2022/03/30 07:45:45;;;;;;;0.10;0.10;;;;;;;;;;4923483;29;20089;-93
2022/03/30 07:56:16;;;;;;;0.10;0.10;;;;;;;;;;5425879;23;20059;-94
2022/03/30 07:59:09;;;;;;;0.10;0.10;;;;;;;;;;4937107;29;20059;-94
2022/03/30 08:01:58;;;;;;;0.10;0.10;;;;;;;;;;4964957;29;20105;-96
2022/03/30 08:04:33;;;;;;;0.10;0.10;;;;;;;;;;4915252;29;20048;-93
2022/03/30 08:07:02;;;;;;;0.10;0.10;;;;;;;;;;4886392;29;20071;-96
2022/03/30 08:09:36;;;;;;;0.10;0.10;;;;;;;;;;4891063;29;20485;-92
2022/03/30 08:15:08;;;;;;;0.10;0.10;;;;;;;;;;5019353;23;20060;-94
2022/03/30 08:17:35;;;;;;;0.10;0.10;;;;;;;;;;4903024;29;20044;-93
2022/03/30 08:20:04;;;;;;;0.10;0.10;;;;;;;;;;4936066;29;20068;-93
2022/03/30 08:22:30;;;;;;;0.10;0.10;;;;;;;;;;4916645;29;20131;-94
2022/03/30 08:25:02;;;;;;;0.10;0.10;;;;;;;;;;4915821;29;20092;-93
2022/03/30 08:27:29;;;;;;;0.10;0.10;;;;;;;;;;4884706;29;20070;-92
2022/03/30 08:29:55;;;;;;;0.10;0.10;;;;;;;;;;4888006;29;20051;-95
2022/03/30 08:41:02;;;;;;;0.10;0.10;;;;;;;;;;4940554;29;20036;-95
2022/03/30 08:43:29;;;;;;;0.10;0.10;;;;;;;;;;4907827;29;20095;-95
2022/03/30 08:46:03;;;;;;;0.10;0.10;;;;;;;;;;4903552;29;20040;-96
2022/03/30 08:48:29;;;;;;;0.10;0.10;;;;;;;;;;4884703;29;20060;-96
2022/03/30 08:50:56;;;;;;;0.10;0.10;;;;;;;;;;4884961;29;20059;-94
2022/03/30 08:53:31;;;;;;;0.10;0.10;;;;;;;;;;4883740;29;20049;-95
2022/03/30 08:55:57;;;;;;;0.10;0.10;;;;;;;;;;4884462;29;20095;-94
2022/03/30 08:58:23;;;;;;;0.10;0.10;;;;;;;;;;4884541;29;20040;-95
2022/03/30 09:00:51;;;;;;;0.10;0.10;;;;;;;;;;4885112;29;20097;-94
2022/03/30 09:03:19;;;;;;;0.10;0.10;;;;;;;;;;4884869;29;20496;-93
2022/03/30 09:05:45;;;;;;;0.10;0.10;;;;;;;;;;4885157;29;20041;-93
2022/03/30 09:08:17;;;;;;;0.10;0.10;;;;;;;;;;4884560;29;20132;-95
2022/03/30 09:10:44;;;;;;;0.10;0.10;;;;;;;;;;4885089;29;20045;-93
2022/03/30 09:13:17;;;;;;;0.10;0.10;;;;;;;;;;4886287;29;20104;-95
2022/03/30 09:23:29;;;;;;;0.10;0.10;;;;;;;;;;4946611;28;20036;-92
2022/03/30 09:25:56;;;;;;;0.10;0.10;;;;;;;;;;4913518;29;20054;-94
2022/03/30 09:28:22;;;;;;;0.10;0.10;;;;;;;;;;4927636;29;20074;-90
2022/03/30 09:30:48;;;;;;;0.10;0.10;;;;;;;;;;4937544;29;20502;-93
2022/03/30 09:33:16;;;;;;;0.10;0.10;;;;;;;;;;4906615;29;20044;-93
2022/03/30 09:35:42;;;;;;;0.10;0.10;;;;;;;;;;4906848;29;20088;-92
2022/03/30 09:38:09;;;;;;;0.10;0.10;;;;;;;;;;4906657;29;20107;-94
2022/03/30 09:40:36;;;;;;;0.10;0.10;;;;;;;;;;4903402;29;20050;-92
2022/03/30 09:43:12;;;;;;;0.10;0.10;;;;;;;;;;4902637;29;20056;-96
2022/03/30 09:45:38;;;;;;;0.10;0.10;;;;;;;;;;4906024;29;20063;-96
2022/03/30 09:48:13;;;;;;;0.10;0.10;;;;;;;;;;4914087;29;20044;-95
2022/03/30 09:50:48;;;;;;;0.10;0.10;;;;;;;;;;4910423;28;20051;-94
2022/03/30 09:53:18;;;;;;;0.10;0.10;;;;;;;;;;4927131;29;20052;-94
2022/03/30 09:56:10;;;;;;;0.10;0.10;;;;;;;;;;4906425;29;20055;-91
2022/03/30 09:58:40;;;;;;;0.10;0.10;;;;;;;;;;4896961;29;20143;-93
2022/03/30 10:01:12;;;;;;;0.10;0.10;;;;;;;;;;4890738;29;20115;-93
2022/03/30 10:03:41;;;;;;;0.10;0.10;;;;;;;;;;4905266;29;20477;-92
2022/03/30 10:06:09;;;;;;;0.10;0.10;;;;;;;;;;4894433;29;20127;-92
2022/03/30 10:08:53;;;;;;;0.10;0.10;;;;;;;;;;4893221;29;20115;-94
2022/03/30 10:11:20;;;;;;;0.10;0.10;;;;;;;;;;4889986;29;20164;-94
2022/03/30 10:13:50;;;;;;;0.10;0.10;;;;;;;;;;4993115;23;20057;-94
2022/03/30 10:16:17;;;;;;;0.10;0.10;;;;;;;;;;4934959;29;20043;-92
2022/03/30 10:18:43;;;;;;;0.10;0.10;;;;;;;;;;4939761;29;20068;-92
2022/03/30 10:21:20;;;;;;;0.05;0.05;;;;;;;;;;4939601;29;20419;-91
2022/03/30 10:23:48;;;;;;;0.10;0.10;;;;;;;;;;4940423;29;20142;-92
2022/03/30 10:26:27;;;;;;;0.10;0.10;;;;;;;;;;4939730;29;20062;-94
2022/03/30 10:28:56;;;;;;;0.10;0.10;;;;;;;;;;4936421;29;20039;-92
2022/03/30 10:31:22;;;;;;;0.10;0.10;;;;;;;;;;4904973;29;20043;-91
2022/03/30 10:33:49;;;;;;;0.10;0.10;;;;;;;;;;4920354;29;20051;-93
2022/03/30 10:36:27;;;;;;;0.10;0.10;;;;;;;;;;4905062;29;20566;-90
2022/03/30 10:39:11;;;;;;;0.10;0.10;;;;;;;;;;4919961;29;20207;-93
2022/03/30 10:41:50;;;;;;;0.10;0.10;;;;;;;;;;4904615;29;20043;-90
2022/03/30 10:44:35;;;;;;;0.10;0.10;;;;;;;;;;4905049;29;20078;-90
2022/03/30 10:47:07;;;;;;;0.10;0.10;;;;;;;;;;4904310;29;20044;-91
2022/03/30 10:49:40;;;;;;;0.10;0.10;;;;;;;;;;4920576;29;20039;-91
2022/03/30 10:52:28;;;;;;;0.10;0.10;;;;;;;;;;4904994;29;20070;-91
2022/03/30 10:55:13;;;;;;;0.10;0.10;;;;;;;;;;4918921;29;20118;-94
2022/03/30 10:57:49;;;;;;;0.10;0.10;;;;;;;;;;4920850;29;20039;-95
2022/03/30 11:00:27;;;;;;;0.10;0.10;;;;;;;;;;4920946;29;20480;-94
2022/03/30 11:02:54;;;;;;;0.10;0.10;;;;;;;;;;4905369;29;20416;-95
2022/03/30 11:05:30;;;;;;;0.10;0.10;;;;;;;;;;4906043;29;20442;-95
2022/03/30 11:07:56;;;;;;;0.10;0.10;;;;;;;;;;4905863;29;20072;-95
2022/03/30 11:10:23;;;;;;;0.10;0.10;;;;;;;;;;4905125;29;20048;-94
2022/03/30 11:12:56;;;;;;;0.38;0.20;;;;;;;;;;4904664;29;20055;-94
2022/03/30 11:15:22;;;;;;;0.10;0.10;;;;;;;;;;4905071;29;20051;-95
2022/03/30 11:17:48;;;;;;;0.10;0.10;;;;;;;;;;4905390;29;20460;-93
2022/03/30 11:20:14;;;;;;;0.10;0.10;;;;;;;;;;4904776;29;20039;-93
2022/03/30 11:22:45;;;;;;;0.10;0.10;;;;;;;;;;4904989;29;20063;-90
2022/03/30 11:25:19;;;;;;;0.10;0.10;;;;;;;;;;4905210;29;20056;-94
2022/03/30 11:27:45;;;;;;;0.10;0.10;;;;;;;;;;4911289;29;20082;-92
2022/03/30 11:30:15;;;;;;;0.10;0.10;;;;;;;;;;4926165;29;20082;-93
2022/03/30 11:32:42;;;;;;;0.10;0.10;;;;;;;;;;4920866;29;20484;-94
2022/03/30 11:35:10;;;;;;;0.10;0.10;;;;;;;;;;4920274;29;20044;-93
2022/03/30 11:37:36;;;;;;;0.10;0.10;;;;;;;;;;4920266;29;20092;-92
2022/03/30 11:40:09;;;;;;;0.10;0.10;;;;;;;;;;4920811;29;20036;-94
2022/03/30 11:42:37;;;;;;;0.15;0.15;;;;;;;;;;4920405;29;20134;-91
2022/03/30 11:45:21;;;;;;;0.10;0.10;;;;;;;;;;4920338;29;20044;-94
2022/03/30 11:47:54;;;;;;;0.10;0.10;;;;;;;;;;4922545;29;20043;-93
2022/03/30 11:50:25;;;;;;;0.10;0.10;;;;;;;;;;4920516;29;20075;-92
2022/03/30 11:53:20;;;;;;;0.10;0.10;;;;;;;;;;4920411;29;20047;-95
2022/03/30 11:55:49;;;;;;;0.10;0.10;;;;;;;;;;4898483;29;20056;-93
2022/03/30 11:58:24;;;;;;;0.10;0.10;;;;;;;;;;4901592;29;20044;-93
2022/03/30 12:00:52;;;;;;;0.10;0.10;;;;;;;;;;4901384;29;20139;-94
2022/03/30 12:03:18;;;;;;;0.10;0.10;;;;;;;;;;4904074;29;20052;-91
2022/03/30 12:05:51;;;;;;;0.10;0.10;;;;;;;;;;4925943;29;20067;-94
2022/03/30 12:08:17;;;;;;;0.10;0.10;;;;;;;;;;4949358;29;20085;-93
2022/03/30 12:10:43;;;;;;;0.10;0.10;;;;;;;;;;4946675;29;20124;-92
2022/03/30 12:13:09;;;;;;;0.10;0.10;;;;;;;;;;4942346;29;20059;-91
2022/03/30 12:15:36;;;;;;;0.10;0.10;;;;;;;;;;4942671;29;20138;-92
2022/03/30 12:18:02;;;;;;;0.10;0.10;;;;;;;;;;4942198;29;20086;-91
2022/03/30 12:20:30;;;;;;;0.10;0.10;;;;;;;;;;4942769;29;20041;-91
2022/03/30 12:22:58;;;;;;;0.10;0.10;;;;;;;;;;4941748;29;20082;-90
2022/03/30 12:25:25;;;;;;;0.10;0.10;;;;;;;;;;4941887;29;20070;-91
2022/03/30 12:27:51;;;;;;;0.10;0.10;;;;;;;;;;4941514;29;20047;-90
2022/03/30 12:30:17;;;;;;;0.10;0.10;;;;;;;;;;4941542;29;20133;-92
2022/03/30 12:32:43;;;;;;;0.10;0.10;;;;;;;;;;4941078;29;20043;-91
2022/03/30 12:35:09;;;;;;;0.10;0.10;;;;;;;;;;4941616;29;20118;-92
2022/03/30 12:37:35;;;;;;;0.10;0.10;;;;;;;;;;4941485;29;20043;-92
2022/03/30 12:40:11;;;;;;;0.10;0.10;;;;;;;;;;4941411;29;20368;-91
2022/03/30 12:42:37;;;;;;;0.20;0.20;;;;;;;;;;4940821;29;20134;-90
2022/03/30 12:45:10;;;;;;;0.10;0.10;;;;;;;;;;4940811;29;20055;-90
2022/03/30 12:47:40;;;;;;;0.10;0.10;;;;;;;;;;4942077;29;20050;-91
2022/03/30 12:50:07;;;;;;;0.10;0.10;;;;;;;;;;4940345;29;20051;-88
2022/03/30 12:52:52;;;;;;;0.10;0.10;;;;;;;;;;4940596;29;20050;-91
2022/03/30 12:55:20;;;;;;;0.10;0.10;;;;;;;;;;4940503;29;20134;-89
2022/03/30 12:58:12;;;;;;;0.10;0.10;;;;;;;;;;4940725;29;20382;-90
2022/03/30 13:00:47;;;;;;;0.10;0.10;;;;;;;;;;4931726;29;20345;-89
2022/03/30 13:03:13;;;;;;;0.10;0.10;;;;;;;;;;4924541;29;20099;-89
2022/03/30 13:05:41;;;;;;;0.10;0.10;;;;;;;;;;4936525;29;20039;-89
2022/03/30 13:08:14;;;;;;;0.10;0.10;;;;;;;;;;4921223;29;20050;-88
2022/03/30 13:10:54;;;;;;;0.10;0.10;;;;;;;;;;4920575;29;20040;-89
2022/03/30 13:13:30;;;;;;;0.10;0.10;;;;;;;;;;4921024;29;20058;-89
2022/03/30 13:16:07;;;;;;;0.10;0.10;;;;;;;;;;4921037;29;20127;-89
2022/03/30 13:18:33;;;;;;;0.10;0.10;;;;;;;;;;4920428;29;20483;-89
2022/03/30 13:20:59;;;;;;;0.10;0.10;;;;;;;;;;4920699;29;20039;-89
2022/03/30 13:23:35;;;;;;;0.10;0.10;;;;;;;;;;4936773;29;20036;-89
2022/03/30 13:26:03;;;;;;;0.10;0.10;;;;;;;;;;4920568;29;20095;-89
2022/03/30 13:28:30;;;;;;;0.10;0.10;;;;;;;;;;4920603;29;20046;-88
2022/03/30 13:30:56;;;;;;;0.10;0.10;;;;;;;;;;4920545;29;20551;-88
2022/03/30 13:33:22;;;;;;;0.10;0.10;;;;;;;;;;4920891;29;20040;-90
2022/03/30 13:35:48;;;;;;;0.10;0.10;;;;;;;;;;4920387;29;20381;-89
2022/03/30 13:38:18;;;;;;;0.10;0.10;;;;;;;;;;4920792;29;20043;-89
2022/03/30 13:40:44;;;;;;;0.10;0.10;;;;;;;;;;4921446;29;20270;-92
2022/03/30 13:43:10;;;;;;;0.10;0.10;;;;;;;;;;4921581;29;20039;-92
2022/03/30 13:45:37;;;;;;;0.10;0.10;;;;;;;;;;4922014;29;20044;-93
2022/03/30 13:48:03;;;;;;;2.65;0.40;;;;;;;;;;4921900;29;20047;-94
2022/03/30 13:50:29;;;;;;;0.10;0.10;;;;;;;;;;4921622;29;20183;-93
2022/03/30 13:52:55;;;;;;;0.57;0.57;;;;;;;;;;4921519;29;20051;-94
2022/03/30 13:55:21;;;;;;;0.10;0.10;;;;;;;;;;4921365;29;20086;-93
2022/03/30 13:57:47;;;;;;;0.10;0.10;;;;;;;;;;4921249;29;20408;-94
2022/03/30 14:00:14;;;;;;;0.10;0.10;;;;;;;;;;4921588;29;20130;-93
2022/03/30 14:02:40;;;;;;;0.10;0.10;;;;;;;;;;4921871;29;20036;-92
2022/03/30 14:05:06;;;;;;;0.10;0.10;;;;;;;;;;4921233;29;20044;-95
2022/03/30 14:07:32;;;;;;;0.10;0.10;;;;;;;;;;4920778;29;20039;-94
2022/03/30 14:09:59;;;;;;;0.10;0.10;;;;;;;;;;4921407;29;20138;-93
2022/03/30 14:12:27;;;;;;;0.10;0.10;;;;;;;;;;4921538;29;20480;-92
2022/03/30 14:14:53;;;;;;;0.10;0.10;;;;;;;;;;4920099;29;20496;-90
2022/03/30 14:17:21;;;;;;;0.10;0.10;;;;;;;;;;4920767;29;20052;-94
2022/03/30 14:19:47;;;;;;;0.10;0.10;;;;;;;;;;4920693;29;20039;-91
2022/03/30 14:22:13;;;;;;;0.10;0.10;;;;;;;;;;4920213;29;20075;-90
2022/03/30 14:24:39;;;;;;;0.10;0.10;;;;;;;;;;4922518;29;20134;-91
2022/03/30 14:27:05;;;;;;;0.10;0.10;;;;;;;;;;4939192;29;20101;-90
2022/03/30 14:29:31;;;;;;;0.10;0.10;;;;;;;;;;4939420;29;20047;-90
2022/03/30 14:31:57;;;;;;;0.10;0.10;;;;;;;;;;4938751;29;20051;-91
2022/03/30 14:34:23;;;;;;;0.10;0.10;;;;;;;;;;4939399;29;20047;-92
2022/03/30 14:36:49;;;;;;;0.10;0.10;;;;;;;;;;4938989;29;20031;-91
2022/03/30 14:39:15;;;;;;;0.10;0.10;;;;;;;;;;4939712;29;20125;-92
2022/03/30 14:41:41;;;;;;;0.10;0.10;;;;;;;;;;4939800;29;20039;-92
2022/03/30 14:44:08;;;;;;;0.10;0.10;;;;;;;;;;4939009;29;20102;-93
2022/03/30 14:46:34;;;;;;;0.10;0.10;;;;;;;;;;4939282;29;20069;-92
2022/03/30 14:49:03;;;;;;;0.10;0.10;;;;;;;;;;4939519;29;20047;-90
2022/03/30 14:51:29;;;;;;;0.10;0.10;;;;;;;;;;4939587;29;20480;-93
2022/03/30 14:53:57;;;;;;;0.10;0.10;;;;;;;;;;4938590;29;20089;-93
2022/03/30 14:56:23;;;;;;;0.10;0.10;;;;;;;;;;4939849;29;20039;-94
2022/03/30 14:58:49;;;;;;;0.10;0.10;;;;;;;;;;4939354;29;20053;-94
2022/03/30 15:01:15;;;;;;;0.10;0.10;;;;;;;;;;4939195;29;20086;-93
2022/03/30 15:03:42;;;;;;;0.10;0.10;;;;;;;;;;4939211;29;20039;-92
2022/03/30 15:06:08;;;;;;;0.10;0.10;;;;;;;;;;4938880;29;20294;-94
2022/03/30 15:08:34;;;;;;;0.10;0.10;;;;;;;;;;4939202;29;20043;-93
2022/03/30 15:11:01;;;;;;;0.10;0.10;;;;;;;;;;4938960;29;20130;-94
2022/03/30 15:13:27;;;;;;;0.10;0.10;;;;;;;;;;4939001;29;20496;-96
2022/03/30 15:15:53;;;;;;;0.10;0.10;;;;;;;;;;4938776;29;20173;-96
2022/03/30 15:18:19;;;;;;;0.10;0.10;;;;;;;;;;4938874;29;20039;-94
2022/03/30 15:20:45;;;;;;;0.10;0.10;;;;;;;;;;4938795;29;20102;-93
2022/03/30 15:23:11;;;;;;;0.10;0.10;;;;;;;;;;4938827;29;20103;-92
2022/03/30 15:25:37;;;;;;;0.10;0.10;;;;;;;;;;4938704;29;20492;-93
2022/03/30 15:28:04;;;;;;;0.10;0.10;;;;;;;;;;4939309;29;20031;-93
2022/03/30 15:30:30;;;;;;;0.10;0.10;;;;;;;;;;4938785;29;20051;-92
2022/03/30 15:32:58;;;;;;;0.10;0.10;;;;;;;;;;4939276;29;20039;-91
2022/03/30 15:35:24;;;;;;;0.10;0.10;;;;;;;;;;4953568;28;20055;-91